createdAt,value
2018-02-12T00:00:00.378Z,1.96
2018-02-12T00:02:27.950Z,1.93
2018-02-12T00:04:55.519Z,1.86
2018-02-12T00:07:23.147Z,1.85
2018-02-12T00:09:50.718Z,1.81
2018-02-12T00:12:18.363Z,1.82
2018-02-12T00:14:45.934Z,1.76
2018-02-12T00:17:13.508Z,1.74
2018-02-12T00:19:41.082Z,1.64
2018-02-12T00:22:08.746Z,1.64
2018-02-12T00:24:36.324Z,1.56
2018-02-12T00:27:03.918Z,1.47
2018-02-12T00:29:31.536Z,1.43
2018-02-12T00:31:59.153Z,1.38
2018-02-12T00:34:26.776Z,1.27
2018-02-12T00:36:54.378Z,1.23
2018-02-12T00:39:22.895Z,1.23
2018-02-12T00:41:50.476Z,1.22
2018-02-12T00:44:18.047Z,1.11
2018-02-12T00:46:45.619Z,1.23
2018-02-12T00:49:13.246Z,1.20
2018-02-12T00:51:40.866Z,1.05
2018-02-12T00:54:08.467Z,1.01
2018-02-12T00:56:36.084Z,0.90
2018-02-12T00:59:03.666Z,0.86
2018-02-12T01:01:31.286Z,0.82
2018-02-12T01:03:58.875Z,0.81
2018-02-12T01:06:26.524Z,0.76
2018-02-12T01:08:54.102Z,0.68
2018-02-12T01:11:21.798Z,0.59
2018-02-12T01:13:49.377Z,0.56
2018-02-12T01:16:17.054Z,0.49
2018-02-12T01:18:44.628Z,0.42
2018-02-12T01:21:12.204Z,0.33
2018-02-12T01:23:39.838Z,0.32
2018-02-12T01:26:07.426Z,0.23
2018-02-12T01:28:35.053Z,0.30
2018-02-12T01:31:02.694Z,0.23
2018-02-12T01:33:30.279Z,0.21
2018-02-12T01:35:57.913Z,0.17
2018-02-12T01:38:25.528Z,0.12
2018-02-12T01:40:53.192Z,0.11
2018-02-12T01:43:20.769Z,0.11
2018-02-12T01:45:48.380Z,0.08
2018-02-12T01:48:16.002Z,0.09
2018-02-12T01:50:43.577Z,0.08
2018-02-12T01:53:11.199Z,0.14
2018-02-12T01:55:38.916Z,0.05
2018-02-12T01:58:06.506Z,-0.02
2018-02-12T02:00:34.190Z,-0.06
2018-02-12T02:03:01.767Z,0.01
2018-02-12T02:05:29.387Z,0.02
2018-02-12T02:07:56.973Z,-0.09
2018-02-12T02:10:24.686Z,-0.14
2018-02-12T02:12:52.280Z,-0.19
2018-02-12T02:15:19.910Z,-0.24
2018-02-12T02:17:47.538Z,-0.26
2018-02-12T02:20:15.166Z,-0.30
2018-02-12T02:22:42.747Z,-0.28
2018-02-12T02:25:10.330Z,-0.23
2018-02-12T02:27:37.921Z,-0.23
2018-02-12T02:30:05.510Z,-0.23
2018-02-12T02:32:33.095Z,-0.20
2018-02-12T02:35:00.675Z,-0.28
2018-02-12T02:37:28.367Z,-0.36
2018-02-12T02:39:55.962Z,-0.38
2018-02-12T02:42:23.550Z,-0.44
2018-02-12T02:44:51.250Z,-0.46
2018-02-12T02:47:18.851Z,-0.49
2018-02-12T02:49:47.266Z,-0.52
2018-02-12T02:52:14.854Z,-0.55
2018-02-12T02:54:42.549Z,-0.57
2018-02-12T02:57:10.174Z,-0.59
2018-02-12T02:59:39.366Z,-0.59
2018-02-12T03:02:06.955Z,-0.57
2018-02-12T03:04:34.551Z,-0.57
2018-02-12T03:07:02.134Z,-0.51
2018-02-12T03:09:29.789Z,-0.45
2018-02-12T03:11:57.413Z,-0.36
2018-02-12T03:14:25.907Z,-0.19
2018-02-12T03:16:54.340Z,-0.13
2018-02-12T03:19:22.698Z,-0.04
2018-02-12T03:21:50.273Z,0.05
2018-02-12T03:24:17.858Z,0.18
2018-02-12T03:26:45.435Z,0.25
2018-02-12T03:29:13.070Z,0.27
2018-02-12T03:31:40.733Z,0.34
2018-02-12T03:34:08.354Z,0.34
2018-02-12T03:36:35.958Z,0.39
2018-02-12T03:39:03.546Z,0.31
2018-02-12T03:41:31.129Z,0.27
2018-02-12T03:43:58.742Z,0.20
2018-02-12T03:46:26.403Z,0.15
2018-02-12T03:48:54.026Z,0.14
2018-02-12T03:51:21.619Z,0.11
2018-02-12T03:53:49.235Z,0.07
2018-02-12T03:56:17.615Z,0.05
2018-02-12T03:58:45.336Z,-0.06
2018-02-12T04:01:13.871Z,-0.12
2018-02-12T04:03:42.243Z,-0.17
2018-02-12T04:06:10.710Z,-0.21
2018-02-12T04:08:39.194Z,-0.24
2018-02-12T04:11:07.587Z,-0.24
2018-02-12T04:13:35.994Z,-0.04
2018-02-12T04:16:04.472Z,-0.02
2018-02-12T04:18:32.922Z,0.00
2018-02-12T04:21:01.314Z,0.17
2018-02-12T04:23:28.898Z,0.17
2018-02-12T04:25:56.495Z,0.24
2018-02-12T04:28:24.956Z,0.28
2018-02-12T04:30:53.348Z,0.37
2018-02-12T04:33:20.934Z,0.47
2018-02-12T04:35:48.586Z,0.48
2018-02-12T04:38:16.170Z,0.49
2018-02-12T04:40:44.875Z,0.48
2018-02-12T04:43:12.497Z,0.48
2018-02-12T04:45:40.808Z,0.51
2018-02-12T04:48:09.208Z,0.48
2018-02-12T04:50:37.531Z,0.50
2018-02-12T04:53:05.891Z,0.55
2018-02-12T04:55:33.522Z,0.58
2018-02-12T04:58:01.116Z,0.60
2018-02-12T05:00:29.766Z,0.62
2018-02-12T05:02:58.188Z,0.64
2018-02-12T05:05:25.854Z,0.68
2018-02-12T05:07:53.430Z,0.64
2018-02-12T05:10:21.129Z,0.64
2018-02-12T05:12:48.706Z,0.63
2018-02-12T05:15:16.316Z,0.65
2018-02-12T05:17:44.846Z,0.72
2018-02-12T05:20:13.302Z,0.72
2018-02-12T05:22:41.040Z,0.78
2018-02-12T05:25:09.518Z,0.80
2018-02-12T05:27:37.916Z,0.83
2018-02-12T05:30:06.307Z,0.80
2018-02-12T05:32:33.931Z,0.76
2018-02-12T05:35:01.531Z,0.79
2018-02-12T05:37:30.272Z,0.77
2018-02-12T05:39:58.639Z,0.76
2018-02-12T05:42:27.017Z,0.79
2018-02-12T05:44:54.636Z,0.79
2018-02-12T05:47:22.218Z,0.76
2018-02-12T05:49:49.794Z,0.78
2018-02-12T05:52:17.389Z,0.78
2018-02-12T05:54:44.974Z,0.82
2018-02-12T05:57:12.555Z,0.81
2018-02-12T05:59:40.133Z,0.85
2018-02-12T06:02:07.704Z,0.89
2018-02-12T06:04:35.279Z,0.90
2018-02-12T06:07:02.899Z,0.93
2018-02-12T06:09:31.219Z,0.93
2018-02-12T06:11:58.802Z,0.93
2018-02-12T06:14:26.374Z,0.95
2018-02-12T06:16:53.946Z,0.99
2018-02-12T06:19:21.522Z,0.97
2018-02-12T06:21:49.145Z,0.98
2018-02-12T06:24:17.731Z,0.99
2018-02-12T06:26:45.317Z,1.00
2018-02-12T06:29:12.900Z,0.99
2018-02-12T06:31:40.510Z,1.01
2018-02-12T06:34:08.869Z,1.05
2018-02-12T06:36:36.549Z,1.08
2018-02-12T06:39:04.176Z,1.14
2018-02-12T06:41:31.758Z,1.14
2018-02-12T06:43:59.404Z,1.15
2018-02-12T06:46:27.098Z,1.16
2018-02-12T06:48:54.678Z,1.19
2018-02-12T06:51:23.164Z,1.22
2018-02-12T06:53:50.807Z,1.32
2018-02-12T06:56:18.475Z,1.33
2018-02-12T06:58:46.057Z,1.30
2018-02-12T07:01:14.457Z,1.33
2018-02-12T07:03:42.030Z,1.37
2018-02-12T07:06:10.438Z,1.48
2018-02-12T07:08:38.019Z,1.58
2018-02-12T07:11:06.439Z,1.54
2018-02-12T07:13:34.056Z,1.68
2018-02-12T07:16:02.680Z,1.81
2018-02-12T07:18:31.158Z,1.75
2018-02-12T07:20:59.527Z,1.91
2018-02-12T07:23:27.875Z,2.02
2018-02-12T07:25:55.451Z,1.92
2018-02-12T07:28:23.843Z,1.90
2018-02-12T07:30:52.163Z,2.13
2018-02-12T07:33:20.478Z,2.01
2018-02-12T07:35:48.826Z,2.03
2018-02-12T07:38:16.409Z,2.06
2018-02-12T07:40:44.903Z,2.12
2018-02-12T07:43:13.294Z,2.16
2018-02-12T07:45:40.911Z,2.20
2018-02-12T07:48:09.401Z,2.33
2018-02-12T07:50:37.090Z,2.42
2018-02-12T07:53:05.624Z,2.45
2018-02-12T07:55:33.207Z,2.50
2018-02-12T07:58:01.675Z,2.62
2018-02-12T08:00:29.985Z,2.59
2018-02-12T08:02:58.262Z,2.69
2018-02-12T08:05:25.844Z,2.55
2018-02-12T08:07:54.131Z,2.66
2018-02-12T08:10:21.763Z,2.66
2018-02-12T08:12:50.260Z,2.62
2018-02-12T08:15:17.836Z,2.54
2018-02-12T08:17:46.331Z,2.50
2018-02-12T08:20:13.951Z,2.31
2018-02-12T08:22:42.444Z,2.27
2018-02-12T08:25:10.062Z,2.28
2018-02-12T08:27:37.718Z,2.33
2018-02-12T08:30:05.303Z,2.38
2018-02-12T08:32:33.651Z,2.39
2018-02-12T08:35:01.234Z,2.66
2018-02-12T08:37:29.805Z,2.88
2018-02-12T08:39:57.385Z,3.05
2018-02-12T08:42:25.810Z,3.18
2018-02-12T08:44:53.726Z,3.22
2018-02-12T08:47:22.247Z,3.38
2018-02-12T08:49:50.521Z,3.37
2018-02-12T08:52:18.137Z,3.40
2018-02-12T08:54:46.512Z,3.50
2018-02-12T08:57:15.027Z,3.56
2018-02-12T08:59:42.604Z,3.64
2018-02-12T09:02:10.291Z,3.61
2018-02-12T09:04:37.895Z,3.70
2018-02-12T09:07:05.472Z,3.79
2018-02-12T09:09:33.158Z,3.81
2018-02-12T09:12:00.738Z,3.95
2018-02-12T09:14:28.314Z,3.92
2018-02-12T09:16:55.892Z,3.89
2018-02-12T09:19:23.467Z,3.98
2018-02-12T09:21:51.067Z,4.03
2018-02-12T09:24:19.548Z,4.03
2018-02-12T09:26:47.126Z,4.12
2018-02-12T09:29:14.772Z,4.34
2018-02-12T09:31:42.350Z,4.27
2018-02-12T09:34:09.923Z,4.38
2018-02-12T09:36:37.503Z,4.37
2018-02-12T09:39:05.070Z,4.37
2018-02-12T09:41:33.635Z,4.48
2018-02-12T09:44:01.210Z,4.72
2018-02-12T09:46:28.785Z,4.46
2018-02-12T09:48:56.358Z,4.42
2018-02-12T09:51:23.942Z,4.47
2018-02-12T09:53:51.606Z,4.60
2018-02-12T09:56:19.182Z,4.58
2018-02-12T09:58:46.807Z,4.40
2018-02-12T10:01:14.391Z,4.46
2018-02-12T10:03:42.003Z,4.47
2018-02-12T10:06:10.364Z,4.54
2018-02-12T10:08:37.941Z,4.69
2018-02-12T10:11:05.509Z,4.70
2018-02-12T10:13:33.226Z,4.63
2018-02-12T10:16:00.838Z,4.79
2018-02-12T10:18:29.119Z,4.78
2018-02-12T10:20:56.747Z,5.03
2018-02-12T10:23:24.413Z,5.20
2018-02-12T10:25:52.081Z,5.18
2018-02-12T10:28:19.757Z,5.31
2018-02-12T10:30:47.370Z,5.07
2018-02-12T10:33:14.948Z,5.28
2018-02-12T10:35:42.559Z,5.07
2018-02-12T10:38:10.131Z,5.08
2018-02-12T10:40:37.708Z,4.74
2018-02-12T10:43:05.298Z,4.67
2018-02-12T10:45:32.922Z,4.53
2018-02-12T10:48:00.548Z,4.42
2018-02-12T10:50:28.264Z,4.56
2018-02-12T10:52:56.781Z,4.67
2018-02-12T10:55:24.359Z,4.76
2018-02-12T10:57:51.935Z,4.91
2018-02-12T11:00:19.512Z,5.13
2018-02-12T11:02:47.136Z,5.30
2018-02-12T11:05:14.706Z,5.51
2018-02-12T11:07:42.972Z,5.97
2018-02-12T11:10:11.359Z,6.19
2018-02-12T11:12:38.934Z,6.25
2018-02-12T11:15:07.320Z,6.40
2018-02-12T11:17:35.979Z,6.04
2018-02-12T11:20:04.566Z,5.95
2018-02-12T11:22:32.142Z,5.99
2018-02-12T11:25:00.521Z,6.00
2018-02-12T11:27:28.927Z,5.99
2018-02-12T11:29:57.475Z,5.75
2018-02-12T11:32:25.857Z,5.58
2018-02-12T11:34:54.232Z,5.74
2018-02-12T11:37:22.609Z,5.74
2018-02-12T11:39:51.076Z,5.87
2018-02-12T11:42:19.432Z,6.18
2018-02-12T11:44:47.047Z,6.44
2018-02-12T11:47:15.518Z,6.72
2018-02-12T11:49:43.994Z,6.78
2018-02-12T11:52:12.429Z,6.69
2018-02-12T11:54:40.046Z,6.39
2018-02-12T11:57:08.399Z,6.40
2018-02-12T11:59:36.007Z,6.31
2018-02-12T12:02:04.923Z,6.31
2018-02-12T12:04:33.331Z,6.30
2018-02-12T12:07:01.821Z,6.32
2018-02-12T12:09:30.228Z,6.19
2018-02-12T12:11:58.850Z,6.10
2018-02-12T12:14:27.359Z,6.22
2018-02-12T12:16:55.099Z,6.26
2018-02-12T12:19:22.771Z,5.71
2018-02-12T12:21:50.390Z,5.75
2018-02-12T12:24:17.958Z,5.51
2018-02-12T12:26:45.569Z,5.63
2018-02-12T12:29:13.915Z,5.65
2018-02-12T12:31:41.494Z,5.58
2018-02-12T12:34:09.962Z,5.54
2018-02-12T12:36:38.302Z,5.58
2018-02-12T12:39:06.931Z,5.52
2018-02-12T12:41:34.515Z,5.60
2018-02-12T12:44:02.666Z,5.51
2018-02-12T12:46:30.514Z,5.61
2018-02-12T12:48:59.021Z,5.59
2018-02-12T12:51:26.595Z,5.73
2018-02-12T12:53:55.067Z,5.78
2018-02-12T12:56:22.639Z,5.64
2018-02-12T12:58:50.210Z,5.29
2018-02-12T13:01:17.782Z,4.88
2018-02-12T13:03:45.365Z,4.67
2018-02-12T13:06:12.954Z,4.46
2018-02-12T13:08:40.666Z,4.29
2018-02-12T13:11:09.424Z,4.07
2018-02-12T13:13:37.039Z,3.89
2018-02-12T13:16:04.615Z,3.67
2018-02-12T13:18:32.306Z,3.52
2018-02-12T13:20:59.974Z,3.45
2018-02-12T13:23:28.462Z,3.37
2018-02-12T13:25:56.082Z,3.36
2018-02-12T13:28:23.657Z,3.42
2018-02-12T13:30:51.230Z,3.52
2018-02-12T13:33:18.810Z,3.53
2018-02-12T13:35:46.382Z,3.56
2018-02-12T13:38:14.726Z,3.53
2018-02-12T13:40:42.943Z,3.74
2018-02-12T13:43:10.576Z,3.67
2018-02-12T13:45:38.980Z,3.63
2018-02-12T13:48:06.567Z,3.55
2018-02-12T13:50:34.138Z,3.50
2018-02-12T13:53:01.740Z,3.50
2018-02-12T13:55:30.109Z,3.63
2018-02-12T13:57:58.389Z,3.59
2018-02-12T14:00:25.976Z,3.70
2018-02-12T14:02:53.618Z,3.91
2018-02-12T14:05:21.198Z,4.09
2018-02-12T14:07:49.735Z,4.18
2018-02-12T14:10:17.430Z,4.21
2018-02-12T14:12:45.008Z,4.46
2018-02-12T14:15:12.583Z,4.55
2018-02-12T14:17:40.156Z,4.67
2018-02-12T14:20:07.768Z,4.81
2018-02-12T14:22:35.351Z,4.87
2018-02-12T14:25:02.925Z,4.84
2018-02-12T14:27:31.305Z,4.83
2018-02-12T14:29:58.922Z,4.82
2018-02-12T14:32:27.286Z,4.80
2018-02-12T14:34:54.878Z,4.86
2018-02-12T14:37:22.451Z,4.87
2018-02-12T14:39:50.062Z,4.88
2018-02-12T14:42:17.634Z,4.72
2018-02-12T14:44:45.224Z,4.73
2018-02-12T14:47:12.844Z,4.70
2018-02-12T14:49:41.467Z,4.69
2018-02-12T14:52:09.745Z,4.61
2018-02-12T14:54:37.319Z,4.69
2018-02-12T14:57:04.971Z,4.66
2018-02-12T14:59:32.640Z,4.58
2018-02-12T15:02:01.165Z,4.51
2018-02-12T15:04:29.667Z,4.44
2018-02-12T15:06:57.239Z,4.30
2018-02-12T15:09:24.852Z,4.28
2018-02-12T15:11:52.432Z,4.17
2018-02-12T15:14:20.963Z,4.23
2018-02-12T15:16:49.383Z,4.18
2018-02-12T15:19:17.735Z,4.11
2018-02-12T15:21:46.073Z,4.07
2018-02-12T15:24:14.338Z,3.98
2018-02-12T15:26:42.754Z,3.94
2018-02-12T15:29:11.029Z,3.95
2018-02-12T15:31:39.426Z,3.79
2018-02-12T15:34:07.893Z,3.80
2018-02-12T15:36:36.383Z,3.72
2018-02-12T15:39:04.767Z,3.61
2018-02-12T15:41:33.244Z,3.47
2018-02-12T15:44:01.664Z,3.51
2018-02-12T15:46:30.020Z,3.31
2018-02-12T15:48:58.381Z,3.32
2018-02-12T15:51:26.861Z,3.30
2018-02-12T15:53:55.270Z,3.06
2018-02-12T15:56:23.622Z,2.99
2018-02-12T15:58:52.039Z,2.87
2018-02-12T16:01:20.333Z,2.86
2018-02-12T16:03:47.906Z,2.82
2018-02-12T16:06:15.488Z,2.80
2018-02-12T16:08:43.914Z,2.85
2018-02-12T16:11:12.462Z,2.86
2018-02-12T16:13:40.846Z,2.66
2018-02-12T16:16:09.321Z,2.65
2018-02-12T16:18:36.896Z,2.75
2018-02-12T16:21:05.322Z,2.66
2018-02-12T16:23:33.660Z,2.60
2018-02-12T16:26:01.233Z,2.71
2018-02-12T16:28:28.806Z,2.65
2018-02-12T16:30:56.369Z,2.62
2018-02-12T16:33:23.938Z,2.73
2018-02-12T16:35:51.509Z,2.79
2018-02-12T16:38:19.083Z,2.70
2018-02-12T16:40:47.666Z,2.60
2018-02-12T16:43:15.335Z,2.66
2018-02-12T16:45:42.911Z,2.68
2018-02-12T16:48:10.588Z,2.68
2018-02-12T16:50:38.250Z,2.68
2018-02-12T16:53:05.862Z,2.59
2018-02-12T16:55:33.430Z,2.47
2018-02-12T16:58:01.739Z,2.42
2018-02-12T17:00:30.094Z,2.35
2018-02-12T17:02:57.707Z,2.35
2018-02-12T17:05:25.350Z,2.36
2018-02-12T17:07:53.018Z,2.30
2018-02-12T17:10:21.289Z,2.17
2018-02-12T17:12:48.874Z,2.06
2018-02-12T17:15:17.372Z,2.01
2018-02-12T17:17:44.967Z,1.96
2018-02-12T17:20:12.539Z,1.79
2018-02-12T17:22:40.112Z,1.80
2018-02-12T17:25:07.719Z,1.75
2018-02-12T17:27:35.498Z,1.83
2018-02-12T17:30:03.122Z,1.90
2018-02-12T17:32:30.740Z,1.85
2018-02-12T17:34:58.317Z,1.79
2018-02-12T17:37:26.156Z,1.75
2018-02-12T17:39:54.044Z,1.65
2018-02-12T17:42:21.681Z,1.62
2018-02-12T17:44:49.294Z,1.48
2018-02-12T17:47:16.905Z,1.48
2018-02-12T17:49:44.584Z,1.48
2018-02-12T17:52:12.211Z,1.37
2018-02-12T17:54:39.840Z,1.46
2018-02-12T17:57:08.318Z,1.34
2018-02-12T17:59:36.031Z,1.36
2018-02-12T18:02:03.650Z,1.35
2018-02-12T18:04:31.227Z,1.35
2018-02-12T18:06:58.871Z,1.26
2018-02-12T18:09:27.327Z,1.32
2018-02-12T18:11:54.914Z,1.26
2018-02-12T18:14:27.033Z,1.27
2018-02-12T18:16:54.824Z,1.33
2018-02-12T18:19:22.399Z,1.24
2018-02-12T18:21:50.023Z,1.28
2018-02-12T18:24:17.703Z,1.23
2018-02-12T18:26:45.312Z,1.22
2018-02-12T18:29:13.802Z,1.38
2018-02-12T18:31:41.374Z,1.32
2018-02-12T18:34:08.991Z,1.36
2018-02-12T18:36:36.628Z,1.12
2018-02-12T18:39:04.246Z,1.04
2018-02-12T18:41:32.409Z,1.06
2018-02-12T18:43:59.995Z,0.89
2018-02-12T18:46:27.578Z,0.74
2018-02-12T18:48:55.150Z,0.80
2018-02-12T18:51:22.736Z,1.00
2018-02-12T18:53:50.318Z,0.90
2018-02-12T18:56:17.945Z,0.89
2018-02-12T18:58:48.401Z,0.77
2018-02-12T19:01:16.015Z,0.80
2018-02-12T19:03:44.841Z,0.93
2018-02-12T19:06:13.811Z,0.85
2018-02-12T19:08:41.378Z,0.77
2018-02-12T19:11:09.014Z,0.60
2018-02-12T19:13:36.642Z,0.60
2018-02-12T19:16:05.104Z,0.43
2018-02-12T19:18:32.683Z,0.51
2018-02-12T19:24:04.906Z,0.18
2018-02-12T19:26:42.132Z,0.26
2018-02-12T19:29:13.614Z,0.17
2018-02-12T19:31:42.191Z,-0.03
2018-02-12T19:34:10.747Z,-0.11
2018-02-12T19:36:40.201Z,-0.03
2018-02-12T19:39:08.237Z,-0.17
2018-02-12T19:41:36.672Z,-0.11
2018-02-12T19:44:04.313Z,-0.25
2018-02-12T19:46:32.460Z,-0.38
2018-02-12T19:49:00.998Z,-0.42
2018-02-12T19:51:28.590Z,-0.46
2018-02-12T19:53:57.047Z,-0.56
2018-02-12T19:56:24.642Z,-0.62
2018-02-12T19:58:56.272Z,-0.67
2018-02-12T20:01:25.378Z,-0.71
2018-02-12T20:03:53.437Z,-0.71
2018-02-12T20:06:22.756Z,-0.76
2018-02-12T20:08:50.493Z,-0.78
2018-02-12T20:11:18.074Z,-0.77
2018-02-12T20:13:52.512Z,-0.80
2018-02-12T20:16:29.686Z,-0.83
2018-02-12T20:18:58.386Z,-0.78
2018-02-12T20:21:26.752Z,-0.77
2018-02-12T20:23:55.511Z,-0.81
2018-02-12T20:26:23.734Z,-0.82
2018-02-12T20:28:51.343Z,-0.70
2018-02-12T20:31:19.003Z,-0.62
2018-02-12T20:33:46.661Z,-0.34
2018-02-12T20:36:14.246Z,-0.47
2018-02-12T20:38:41.935Z,-0.38
2018-02-12T20:41:10.566Z,-0.47
2018-02-12T20:43:38.192Z,-0.38
2018-02-12T20:46:05.827Z,-0.29
2018-02-12T20:48:33.462Z,-0.21
2018-02-12T20:51:01.619Z,-0.21
2018-02-12T20:53:29.359Z,-0.18
2018-02-12T20:55:57.845Z,-0.22
2018-02-12T20:58:25.463Z,-0.20
2018-02-12T21:00:53.051Z,-0.02
2018-02-12T21:03:20.755Z,0.00
2018-02-12T21:05:48.539Z,0.04
2018-02-12T21:08:17.134Z,-0.11
2018-02-12T21:10:44.723Z,-0.12
2018-02-12T21:13:13.247Z,-0.15
2018-02-12T21:15:41.910Z,-0.07
2018-02-12T21:18:10.563Z,-0.16
2018-02-12T21:20:39.064Z,-0.24
2018-02-12T21:23:08.404Z,-0.21
2018-02-12T21:25:36.159Z,-0.21
2018-02-12T21:28:03.750Z,-0.23
2018-02-12T21:30:31.402Z,-0.09
2018-02-12T21:32:59.482Z,-0.34
2018-02-12T21:35:27.538Z,-0.24
2018-02-12T21:37:55.263Z,-0.14
2018-02-12T21:40:22.846Z,-0.24
2018-02-12T21:42:51.423Z,-0.36
2018-02-12T21:45:19.016Z,-0.39
2018-02-12T21:47:47.912Z,-0.42
2018-02-12T21:50:16.546Z,-0.29
2018-02-12T21:52:44.158Z,-0.38
2018-02-12T21:55:11.760Z,-0.34
2018-02-12T21:57:39.367Z,-0.33
2018-02-12T22:00:07.012Z,-0.46
2018-02-12T22:02:34.633Z,-0.38
2018-02-12T22:05:02.216Z,-0.45
2018-02-12T22:07:29.838Z,-0.32
2018-02-12T22:09:57.424Z,-0.43
2018-02-12T22:12:25.052Z,-0.24
2018-02-12T22:14:53.353Z,-0.36
2018-02-12T22:17:21.826Z,-0.37
2018-02-12T22:19:50.191Z,-0.46
2018-02-12T22:22:17.778Z,-0.40
2018-02-12T22:24:45.366Z,-0.61
2018-02-12T22:27:12.953Z,-0.59
2018-02-12T22:29:40.538Z,-0.73
2018-02-12T22:32:08.127Z,-0.77
2018-02-12T22:34:35.713Z,-0.69
2018-02-12T22:37:03.518Z,-0.78
2018-02-12T22:39:31.112Z,-0.84
2018-02-12T22:41:58.697Z,-0.89
2018-02-12T22:44:26.283Z,-0.77
2018-02-12T22:46:53.920Z,-0.92
2018-02-12T22:49:21.502Z,-1.00
2018-02-12T22:51:49.090Z,-1.00
2018-02-12T22:54:16.671Z,-0.96
2018-02-12T22:56:44.319Z,-0.97
2018-02-12T22:59:11.912Z,-0.91
2018-02-12T23:01:40.273Z,-1.08
2018-02-12T23:04:07.858Z,-1.11
2018-02-12T23:06:35.448Z,-1.04
2018-02-12T23:09:03.747Z,-0.93
2018-02-12T23:11:31.334Z,-0.91
2018-02-12T23:13:58.930Z,-0.99
2018-02-12T23:16:27.423Z,-1.15
2018-02-12T23:18:55.792Z,-1.11
2018-02-12T23:21:23.376Z,-1.16
2018-02-12T23:23:50.966Z,-1.16
2018-02-12T23:26:18.559Z,-1.21
2018-02-12T23:28:46.962Z,-1.15
2018-02-12T23:31:14.583Z,-1.12
2018-02-12T23:33:43.083Z,-1.21
2018-02-12T23:36:11.442Z,-1.31
2018-02-12T23:38:39.067Z,-1.40
2018-02-12T23:41:07.434Z,-1.42
2018-02-12T23:43:35.018Z,-1.42
2018-02-12T23:46:03.511Z,-1.34
2018-02-12T23:48:31.104Z,-1.35
2018-02-12T23:50:59.506Z,-1.44
2018-02-12T23:53:27.898Z,-1.16
2018-02-12T23:55:56.183Z,-1.09
2018-02-12T23:58:24.583Z,-1.06
